sensor_id;sensor_type;location;lat;lon;timestamp;P1;durP1;ratioP1;P2;durP2;ratioP2
49834;SDS011;35729;52.090;13.162;2023-06-14T00:01:20;3.78;;;1.80;;
49834;SDS011;35729;52.090;13.162;2023-06-14T00:03:48;2.15;;;1.92;;
49834;SDS011;35729;52.090;13.162;2023-06-14T00:06:17;2.10;;;1.70;;
49834;SDS011;35729;52.090;13.162;2023-06-14T00:08:48;2.95;;;1.70;;
49834;SDS011;35729;52.090;13.162;2023-06-14T00:11:17;3.25;;;1.98;;
49834;SDS011;35729;52.090;13.162;2023-06-14T00:13:45;3.25;;;1.88;;
49834;SDS011;35729;52.090;13.162;2023-06-14T00:16:14;2.72;;;2.03;;
49834;SDS011;35729;52.090;13.162;2023-06-14T00:18:44;3.03;;;2.30;;
49834;SDS011;35729;52.090;13.162;2023-06-14T00:21:12;4.30;;;2.17;;
49834;SDS011;35729;52.090;13.162;2023-06-14T00:23:41;3.60;;;2.05;;
49834;SDS011;35729;52.090;13.162;2023-06-14T00:26:12;6.30;;;2.05;;
49834;SDS011;35729;52.090;13.162;2023-06-14T00:28:41;3.10;;;2.10;;
49834;SDS011;35729;52.090;13.162;2023-06-14T00:31:09;3.22;;;2.50;;
49834;SDS011;35729;52.090;13.162;2023-06-14T00:33:38;2.58;;;2.35;;
49834;SDS011;35729;52.090;13.162;2023-06-14T00:36:06;4.18;;;2.47;;
49834;SDS011;35729;52.090;13.162;2023-06-14T00:38:35;4.03;;;2.22;;
49834;SDS011;35729;52.090;13.162;2023-06-14T00:41:03;3.63;;;2.03;;
49834;SDS011;35729;52.090;13.162;2023-06-14T00:43:34;4.97;;;1.73;;
49834;SDS011;35729;52.090;13.162;2023-06-14T00:46:03;2.25;;;2.05;;
49834;SDS011;35729;52.090;13.162;2023-06-14T00:48:31;5.63;;;2.25;;
49834;SDS011;35729;52.090;13.162;2023-06-14T00:51:02;3.17;;;2.55;;
49834;SDS011;35729;52.090;13.162;2023-06-14T00:53:30;5.75;;;2.20;;
49834;SDS011;35729;52.090;13.162;2023-06-14T00:56:01;4.00;;;2.65;;
49834;SDS011;35729;52.090;13.162;2023-06-14T00:58:29;5.55;;;2.33;;
49834;SDS011;35729;52.090;13.162;2023-06-14T01:01:02;6.28;;;2.38;;
49834;SDS011;35729;52.090;13.162;2023-06-14T01:03:31;2.70;;;2.40;;
49834;SDS011;35729;52.090;13.162;2023-06-14T01:06:13;6.50;;;2.45;;
49834;SDS011;35729;52.090;13.162;2023-06-14T01:08:56;5.40;;;2.20;;
49834;SDS011;35729;52.090;13.162;2023-06-14T01:11:32;2.78;;;2.38;;
49834;SDS011;35729;52.090;13.162;2023-06-14T01:16:36;3.45;;;2.40;;
49834;SDS011;35729;52.090;13.162;2023-06-14T01:19:05;4.05;;;2.50;;
49834;SDS011;35729;52.090;13.162;2023-06-14T01:21:39;2.85;;;2.55;;
49834;SDS011;35729;52.090;13.162;2023-06-14T01:24:10;2.97;;;2.40;;
49834;SDS011;35729;52.090;13.162;2023-06-14T01:26:38;2.70;;;2.47;;
49834;SDS011;35729;52.090;13.162;2023-06-14T01:29:10;4.28;;;2.70;;
49834;SDS011;35729;52.090;13.162;2023-06-14T01:31:42;3.10;;;2.75;;
49834;SDS011;35729;52.090;13.162;2023-06-14T01:34:11;3.78;;;2.72;;
49834;SDS011;35729;52.090;13.162;2023-06-14T01:36:40;3.03;;;2.72;;
49834;SDS011;35729;52.090;13.162;2023-06-14T01:39:14;4.13;;;2.83;;
49834;SDS011;35729;52.090;13.162;2023-06-14T01:41:43;4.15;;;2.92;;
49834;SDS011;35729;52.090;13.162;2023-06-14T01:44:16;3.97;;;2.80;;
49834;SDS011;35729;52.090;13.162;2023-06-14T01:46:46;4.13;;;2.80;;
49834;SDS011;35729;52.090;13.162;2023-06-14T01:49:16;4.22;;;2.78;;
49834;SDS011;35729;52.090;13.162;2023-06-14T01:51:44;4.32;;;3.08;;
49834;SDS011;35729;52.090;13.162;2023-06-14T01:54:15;4.13;;;2.90;;
49834;SDS011;35729;52.090;13.162;2023-06-14T01:56:44;3.28;;;2.70;;
49834;SDS011;35729;52.090;13.162;2023-06-14T01:59:12;3.42;;;2.88;;
49834;SDS011;35729;52.090;13.162;2023-06-14T02:01:41;2.90;;;2.63;;
49834;SDS011;35729;52.090;13.162;2023-06-14T02:04:09;5.20;;;3.13;;
49834;SDS011;35729;52.090;13.162;2023-06-14T02:06:38;5.03;;;3.50;;
49834;SDS011;35729;52.090;13.162;2023-06-14T02:09:06;4.22;;;3.05;;
49834;SDS011;35729;52.090;13.162;2023-06-14T02:11:37;3.40;;;2.70;;
49834;SDS011;35729;52.090;13.162;2023-06-14T02:14:06;5.80;;;3.13;;
49834;SDS011;35729;52.090;13.162;2023-06-14T02:16:36;7.07;;;4.35;;
49834;SDS011;35729;52.090;13.162;2023-06-14T02:19:05;4.95;;;3.67;;
49834;SDS011;35729;52.090;13.162;2023-06-14T02:21:34;4.63;;;3.42;;
49834;SDS011;35729;52.090;13.162;2023-06-14T02:24:02;4.68;;;3.30;;
49834;SDS011;35729;52.090;13.162;2023-06-14T02:26:31;7.68;;;3.30;;
49834;SDS011;35729;52.090;13.162;2023-06-14T02:29:02;3.58;;;2.97;;
49834;SDS011;35729;52.090;13.162;2023-06-14T02:31:30;6.07;;;3.80;;
49834;SDS011;35729;52.090;13.162;2023-06-14T02:33:59;3.67;;;3.25;;
49834;SDS011;35729;52.090;13.162;2023-06-14T02:36:28;4.32;;;3.03;;
49834;SDS011;35729;52.090;13.162;2023-06-14T02:38:57;6.93;;;3.78;;
49834;SDS011;35729;52.090;13.162;2023-06-14T02:41:25;4.50;;;3.42;;
49834;SDS011;35729;52.090;13.162;2023-06-14T02:43:54;3.80;;;3.35;;
49834;SDS011;35729;52.090;13.162;2023-06-14T02:46:26;4.53;;;3.33;;
49834;SDS011;35729;52.090;13.162;2023-06-14T02:48:54;5.13;;;3.53;;
49834;SDS011;35729;52.090;13.162;2023-06-14T02:51:23;5.43;;;3.53;;
49834;SDS011;35729;52.090;13.162;2023-06-14T02:53:51;4.60;;;3.63;;
49834;SDS011;35729;52.090;13.162;2023-06-14T02:56:20;4.10;;;3.63;;
49834;SDS011;35729;52.090;13.162;2023-06-14T02:58:48;5.03;;;3.38;;
49834;SDS011;35729;52.090;13.162;2023-06-14T03:01:27;4.00;;;3.60;;
49834;SDS011;35729;52.090;13.162;2023-06-14T03:03:59;4.38;;;3.78;;
49834;SDS011;35729;52.090;13.162;2023-06-14T03:06:28;6.38;;;3.33;;
49834;SDS011;35729;52.090;13.162;2023-06-14T03:08:58;5.32;;;3.67;;
49834;SDS011;35729;52.090;13.162;2023-06-14T03:11:29;7.22;;;5.10;;
49834;SDS011;35729;52.090;13.162;2023-06-14T03:13:58;10.57;;;6.90;;
49834;SDS011;35729;52.090;13.162;2023-06-14T03:16:31;5.20;;;4.50;;
49834;SDS011;35729;52.090;13.162;2023-06-14T03:19:00;9.50;;;6.10;;
49834;SDS011;35729;52.090;13.162;2023-06-14T03:21:28;5.93;;;3.92;;
49834;SDS011;35729;52.090;13.162;2023-06-14T03:23:57;5.10;;;3.95;;
49834;SDS011;35729;52.090;13.162;2023-06-14T03:26:27;5.65;;;3.60;;
49834;SDS011;35729;52.090;13.162;2023-06-14T03:29:17;4.85;;;4.30;;
49834;SDS011;35729;52.090;13.162;2023-06-14T03:31:58;5.82;;;4.80;;
49834;SDS011;35729;52.090;13.162;2023-06-14T03:34:28;5.70;;;4.63;;
49834;SDS011;35729;52.090;13.162;2023-06-14T03:36:56;6.95;;;4.30;;
49834;SDS011;35729;52.090;13.162;2023-06-14T03:39:31;6.00;;;4.80;;
49834;SDS011;35729;52.090;13.162;2023-06-14T03:42:11;5.72;;;5.20;;
49834;SDS011;35729;52.090;13.162;2023-06-14T03:44:40;5.63;;;4.00;;
49834;SDS011;35729;52.090;13.162;2023-06-14T03:47:11;6.32;;;4.90;;
49834;SDS011;35729;52.090;13.162;2023-06-14T03:49:40;7.03;;;4.90;;
49834;SDS011;35729;52.090;13.162;2023-06-14T03:52:08;6.75;;;4.45;;
49834;SDS011;35729;52.090;13.162;2023-06-14T03:54:37;7.70;;;4.43;;
49834;SDS011;35729;52.090;13.162;2023-06-14T03:57:08;6.30;;;4.80;;
49834;SDS011;35729;52.090;13.162;2023-06-14T03:59:36;5.63;;;4.47;;
49834;SDS011;35729;52.090;13.162;2023-06-14T04:02:06;6.10;;;4.78;;
49834;SDS011;35729;52.090;13.162;2023-06-14T04:04:38;6.10;;;5.20;;
49834;SDS011;35729;52.090;13.162;2023-06-14T04:07:09;7.90;;;5.22;;
49834;SDS011;35729;52.090;13.162;2023-06-14T04:09:37;7.75;;;5.40;;
49834;SDS011;35729;52.090;13.162;2023-06-14T04:12:06;10.40;;;5.47;;
49834;SDS011;35729;52.090;13.162;2023-06-14T04:14:36;9.15;;;5.20;;
49834;SDS011;35729;52.090;13.162;2023-06-14T04:17:05;9.98;;;5.40;;
49834;SDS011;35729;52.090;13.162;2023-06-14T04:19:34;8.32;;;4.70;;
49834;SDS011;35729;52.090;13.162;2023-06-14T04:22:05;11.18;;;5.60;;
49834;SDS011;35729;52.090;13.162;2023-06-14T04:24:35;6.10;;;5.10;;
49834;SDS011;35729;52.090;13.162;2023-06-14T04:27:04;7.47;;;5.63;;
49834;SDS011;35729;52.090;13.162;2023-06-14T04:29:33;8.07;;;5.80;;
49834;SDS011;35729;52.090;13.162;2023-06-14T04:32:01;9.48;;;6.38;;
49834;SDS011;35729;52.090;13.162;2023-06-14T04:34:31;6.20;;;5.60;;
49834;SDS011;35729;52.090;13.162;2023-06-14T04:37:05;8.93;;;5.55;;
49834;SDS011;35729;52.090;13.162;2023-06-14T04:39:34;7.75;;;5.75;;
49834;SDS011;35729;52.090;13.162;2023-06-14T04:42:03;6.55;;;5.80;;
49834;SDS011;35729;52.090;13.162;2023-06-14T04:44:32;8.68;;;5.60;;
49834;SDS011;35729;52.090;13.162;2023-06-14T04:47:01;7.18;;;5.90;;
49834;SDS011;35729;52.090;13.162;2023-06-14T04:49:31;12.52;;;5.43;;
49834;SDS011;35729;52.090;13.162;2023-06-14T04:52:00;6.57;;;5.50;;
49834;SDS011;35729;52.090;13.162;2023-06-14T04:54:32;8.73;;;6.30;;
49834;SDS011;35729;52.090;13.162;2023-06-14T04:57:02;9.20;;;7.35;;
49834;SDS011;35729;52.090;13.162;2023-06-14T04:59:31;9.00;;;7.45;;
49834;SDS011;35729;52.090;13.162;2023-06-14T05:02:01;9.32;;;6.68;;
49834;SDS011;35729;52.090;13.162;2023-06-14T05:04:31;10.43;;;7.25;;
49834;SDS011;35729;52.090;13.162;2023-06-14T05:07:04;8.27;;;6.67;;
49834;SDS011;35729;52.090;13.162;2023-06-14T05:09:36;8.80;;;6.68;;
49834;SDS011;35729;52.090;13.162;2023-06-14T05:12:05;7.90;;;6.43;;
49834;SDS011;35729;52.090;13.162;2023-06-14T05:14:35;7.57;;;6.22;;
49834;SDS011;35729;52.090;13.162;2023-06-14T05:17:04;14.25;;;7.57;;
49834;SDS011;35729;52.090;13.162;2023-06-14T05:19:34;8.75;;;6.97;;
49834;SDS011;35729;52.090;13.162;2023-06-14T05:22:03;10.82;;;6.30;;
49834;SDS011;35729;52.090;13.162;2023-06-14T05:24:32;7.78;;;6.47;;
49834;SDS011;35729;52.090;13.162;2023-06-14T05:27:07;10.82;;;6.95;;
49834;SDS011;35729;52.090;13.162;2023-06-14T05:29:36;8.57;;;7.15;;
49834;SDS011;35729;52.090;13.162;2023-06-14T05:32:05;8.90;;;7.20;;
49834;SDS011;35729;52.090;13.162;2023-06-14T05:34:35;8.68;;;6.18;;
49834;SDS011;35729;52.090;13.162;2023-06-14T05:37:03;6.80;;;5.88;;
49834;SDS011;35729;52.090;13.162;2023-06-14T05:39:32;8.85;;;6.38;;
49834;SDS011;35729;52.090;13.162;2023-06-14T05:42:01;7.10;;;6.13;;
49834;SDS011;35729;52.090;13.162;2023-06-14T05:44:32;6.97;;;6.28;;
49834;SDS011;35729;52.090;13.162;2023-06-14T05:47:00;7.63;;;6.80;;
49834;SDS011;35729;52.090;13.162;2023-06-14T05:49:28;8.93;;;6.45;;
49834;SDS011;35729;52.090;13.162;2023-06-14T05:51:57;8.48;;;6.13;;
49834;SDS011;35729;52.090;13.162;2023-06-14T05:54:25;8.77;;;6.20;;
49834;SDS011;35729;52.090;13.162;2023-06-14T05:56:54;6.65;;;5.95;;
49834;SDS011;35729;52.090;13.162;2023-06-14T05:59:26;6.93;;;5.97;;
49834;SDS011;35729;52.090;13.162;2023-06-14T06:01:57;6.25;;;5.65;;
49834;SDS011;35729;52.090;13.162;2023-06-14T06:04:26;7.18;;;6.32;;
49834;SDS011;35729;52.090;13.162;2023-06-14T06:06:54;8.15;;;6.30;;
49834;SDS011;35729;52.090;13.162;2023-06-14T06:09:23;8.02;;;6.55;;
49834;SDS011;35729;52.090;13.162;2023-06-14T06:11:51;13.07;;;6.90;;
49834;SDS011;35729;52.090;13.162;2023-06-14T06:14:20;10.65;;;6.72;;
49834;SDS011;35729;52.090;13.162;2023-06-14T06:16:48;9.70;;;7.30;;
49834;SDS011;35729;52.090;13.162;2023-06-14T06:19:20;9.40;;;6.53;;
49834;SDS011;35729;52.090;13.162;2023-06-14T06:21:48;8.85;;;6.20;;
49834;SDS011;35729;52.090;13.162;2023-06-14T06:24:17;11.43;;;6.78;;
49834;SDS011;35729;52.090;13.162;2023-06-14T06:26:45;7.32;;;6.53;;
49834;SDS011;35729;52.090;13.162;2023-06-14T06:29:14;10.13;;;6.35;;
49834;SDS011;35729;52.090;13.162;2023-06-14T06:31:42;11.52;;;6.75;;
49834;SDS011;35729;52.090;13.162;2023-06-14T06:34:11;8.95;;;6.18;;
49834;SDS011;35729;52.090;13.162;2023-06-14T06:36:42;10.50;;;6.80;;
49834;SDS011;35729;52.090;13.162;2023-06-14T06:39:10;7.88;;;6.00;;
49834;SDS011;35729;52.090;13.162;2023-06-14T06:41:40;8.32;;;6.22;;
49834;SDS011;35729;52.090;13.162;2023-06-14T06:44:08;6.90;;;6.20;;
49834;SDS011;35729;52.090;13.162;2023-06-14T06:46:38;7.03;;;5.82;;
49834;SDS011;35729;52.090;13.162;2023-06-14T06:49:08;8.35;;;6.55;;
49834;SDS011;35729;52.090;13.162;2023-06-14T06:51:37;7.32;;;5.80;;
49834;SDS011;35729;52.090;13.162;2023-06-14T06:54:11;6.65;;;5.55;;
49834;SDS011;35729;52.090;13.162;2023-06-14T06:56:40;9.98;;;5.93;;
49834;SDS011;35729;52.090;13.162;2023-06-14T06:59:08;6.35;;;5.75;;
49834;SDS011;35729;52.090;13.162;2023-06-14T07:01:38;6.55;;;5.15;;
49834;SDS011;35729;52.090;13.162;2023-06-14T07:04:07;6.95;;;4.90;;
49834;SDS011;35729;52.090;13.162;2023-06-14T07:06:35;6.90;;;5.30;;
49834;SDS011;35729;52.090;13.162;2023-06-14T07:09:04;9.88;;;5.32;;
49834;SDS011;35729;52.090;13.162;2023-06-14T07:11:39;7.82;;;5.30;;
49834;SDS011;35729;52.090;13.162;2023-06-14T07:14:08;6.95;;;5.18;;
49834;SDS011;35729;52.090;13.162;2023-06-14T07:16:37;5.75;;;5.00;;
49834;SDS011;35729;52.090;13.162;2023-06-14T07:19:06;5.25;;;4.63;;
49834;SDS011;35729;52.090;13.162;2023-06-14T07:21:35;5.05;;;4.40;;
49834;SDS011;35729;52.090;13.162;2023-06-14T07:24:04;5.50;;;4.97;;
49834;SDS011;35729;52.090;13.162;2023-06-14T07:26:34;6.20;;;5.13;;
49834;SDS011;35729;52.090;13.162;2023-06-14T07:29:05;5.50;;;5.00;;
49834;SDS011;35729;52.090;13.162;2023-06-14T07:31:34;5.43;;;4.82;;
49834;SDS011;35729;52.090;13.162;2023-06-14T07:34:02;5.78;;;5.05;;
49834;SDS011;35729;52.090;13.162;2023-06-14T07:36:30;4.88;;;4.47;;
49834;SDS011;35729;52.090;13.162;2023-06-14T07:38:59;5.40;;;4.60;;
49834;SDS011;35729;52.090;13.162;2023-06-14T07:41:28;5.07;;;4.47;;
49834;SDS011;35729;52.090;13.162;2023-06-14T07:43:57;6.80;;;5.07;;
49834;SDS011;35729;52.090;13.162;2023-06-14T07:46:28;7.28;;;5.68;;
49834;SDS011;35729;52.090;13.162;2023-06-14T07:48:56;6.63;;;5.72;;
49834;SDS011;35729;52.090;13.162;2023-06-14T07:51:25;6.00;;;4.95;;
49834;SDS011;35729;52.090;13.162;2023-06-14T07:53:53;5.85;;;5.25;;
49834;SDS011;35729;52.090;13.162;2023-06-14T07:56:22;6.15;;;5.13;;
49834;SDS011;35729;52.090;13.162;2023-06-14T07:58:50;9.00;;;6.32;;
49834;SDS011;35729;52.090;13.162;2023-06-14T08:01:19;7.25;;;5.97;;
49834;SDS011;35729;52.090;13.162;2023-06-14T08:03:53;7.75;;;5.25;;
49834;SDS011;35729;52.090;13.162;2023-06-14T08:06:21;6.57;;;5.18;;
49834;SDS011;35729;52.090;13.162;2023-06-14T08:08:50;10.90;;;5.50;;
49834;SDS011;35729;52.090;13.162;2023-06-14T08:11:18;6.25;;;5.30;;
49834;SDS011;35729;52.090;13.162;2023-06-14T08:13:49;7.57;;;6.78;;
49834;SDS011;35729;52.090;13.162;2023-06-14T08:16:18;6.53;;;5.65;;
49834;SDS011;35729;52.090;13.162;2023-06-14T08:18:46;7.43;;;6.55;;
49834;SDS011;35729;52.090;13.162;2023-06-14T08:21:17;7.82;;;6.40;;
49834;SDS011;35729;52.090;13.162;2023-06-14T08:23:46;7.72;;;6.93;;
49834;SDS011;35729;52.090;13.162;2023-06-14T08:26:18;7.15;;;5.93;;
49834;SDS011;35729;52.090;13.162;2023-06-14T08:28:47;7.80;;;6.10;;
49834;SDS011;35729;52.090;13.162;2023-06-14T08:31:15;7.95;;;6.88;;
49834;SDS011;35729;52.090;13.162;2023-06-14T08:33:44;8.98;;;6.63;;
49834;SDS011;35729;52.090;13.162;2023-06-14T08:36:12;8.75;;;5.18;;
49834;SDS011;35729;52.090;13.162;2023-06-14T08:38:43;5.28;;;4.78;;
49834;SDS011;35729;52.090;13.162;2023-06-14T08:41:21;7.15;;;4.30;;
49834;SDS011;35729;52.090;13.162;2023-06-14T08:43:51;9.20;;;5.65;;
49834;SDS011;35729;52.090;13.162;2023-06-14T08:46:20;6.25;;;5.22;;
49834;SDS011;35729;52.090;13.162;2023-06-14T08:48:48;6.22;;;5.32;;
49834;SDS011;35729;52.090;13.162;2023-06-14T08:51:18;7.72;;;6.80;;
49834;SDS011;35729;52.090;13.162;2023-06-14T08:53:52;6.07;;;5.47;;
49834;SDS011;35729;52.090;13.162;2023-06-14T08:56:23;7.32;;;4.53;;
49834;SDS011;35729;52.090;13.162;2023-06-14T08:58:54;5.22;;;4.38;;
49834;SDS011;35729;52.090;13.162;2023-06-14T09:01:26;9.13;;;5.05;;
49834;SDS011;35729;52.090;13.162;2023-06-14T09:03:56;6.30;;;5.18;;
49834;SDS011;35729;52.090;13.162;2023-06-14T09:06:25;8.70;;;4.45;;
49834;SDS011;35729;52.090;13.162;2023-06-14T09:08:56;5.45;;;3.90;;
49834;SDS011;35729;52.090;13.162;2023-06-14T09:11:26;6.00;;;3.58;;
49834;SDS011;35729;52.090;13.162;2023-06-14T09:13:54;5.45;;;3.88;;
49834;SDS011;35729;52.090;13.162;2023-06-14T09:16:23;6.32;;;3.58;;
49834;SDS011;35729;52.090;13.162;2023-06-14T09:18:51;7.22;;;3.30;;
49834;SDS011;35729;52.090;13.162;2023-06-14T09:21:21;6.78;;;4.38;;
49834;SDS011;35729;52.090;13.162;2023-06-14T09:23:50;7.00;;;3.90;;
49834;SDS011;35729;52.090;13.162;2023-06-14T09:26:22;5.82;;;3.80;;
49834;SDS011;35729;52.090;13.162;2023-06-14T09:28:52;4.40;;;3.30;;
49834;SDS011;35729;52.090;13.162;2023-06-14T09:31:21;6.65;;;3.67;;
49834;SDS011;35729;52.090;13.162;2023-06-14T09:33:50;6.82;;;3.85;;
49834;SDS011;35729;52.090;13.162;2023-06-14T09:36:22;3.28;;;2.97;;
49834;SDS011;35729;52.090;13.162;2023-06-14T09:38:52;4.35;;;3.53;;
49834;SDS011;35729;52.090;13.162;2023-06-14T09:41:34;7.82;;;4.20;;
49834;SDS011;35729;52.090;13.162;2023-06-14T09:46:34;7.43;;;3.15;;
49834;SDS011;35729;52.090;13.162;2023-06-14T09:49:03;4.82;;;2.70;;
49834;SDS011;35729;52.090;13.162;2023-06-14T09:51:33;5.35;;;3.20;;
49834;SDS011;35729;52.090;13.162;2023-06-14T09:54:04;4.85;;;2.78;;
49834;SDS011;35729;52.090;13.162;2023-06-14T09:56:36;6.13;;;2.85;;
49834;SDS011;35729;52.090;13.162;2023-06-14T09:59:09;3.10;;;2.80;;
49834;SDS011;35729;52.090;13.162;2023-06-14T10:01:40;3.10;;;2.80;;
49834;SDS011;35729;52.090;13.162;2023-06-14T10:04:10;6.13;;;3.78;;
49834;SDS011;35729;52.090;13.162;2023-06-14T10:06:43;4.47;;;2.80;;
49834;SDS011;35729;52.090;13.162;2023-06-14T10:09:13;4.90;;;2.88;;
49834;SDS011;35729;52.090;13.162;2023-06-14T10:11:44;5.32;;;2.90;;
49834;SDS011;35729;52.090;13.162;2023-06-14T10:14:13;3.38;;;2.88;;
49834;SDS011;35729;52.090;13.162;2023-06-14T10:16:45;3.10;;;2.80;;
49834;SDS011;35729;52.090;13.162;2023-06-14T10:19:21;4.25;;;2.60;;
49834;SDS011;35729;52.090;13.162;2023-06-14T10:22:00;6.13;;;2.95;;
49834;SDS011;35729;52.090;13.162;2023-06-14T10:24:32;8.73;;;2.90;;
49834;SDS011;35729;52.090;13.162;2023-06-14T10:27:06;5.63;;;3.00;;
49834;SDS011;35729;52.090;13.162;2023-06-14T10:29:46;5.13;;;3.28;;
49834;SDS011;35729;52.090;13.162;2023-06-14T10:32:31;5.05;;;3.45;;
49834;SDS011;35729;52.090;13.162;2023-06-14T10:35:00;4.25;;;2.90;;
49834;SDS011;35729;52.090;13.162;2023-06-14T10:37:32;5.32;;;3.10;;
49834;SDS011;35729;52.090;13.162;2023-06-14T10:40:01;5.88;;;3.13;;
49834;SDS011;35729;52.090;13.162;2023-06-14T10:42:35;10.52;;;3.05;;
49834;SDS011;35729;52.090;13.162;2023-06-14T10:45:04;3.70;;;2.72;;
49834;SDS011;35729;52.090;13.162;2023-06-14T10:47:33;8.38;;;3.33;;
49834;SDS011;35729;52.090;13.162;2023-06-14T10:50:05;4.60;;;3.28;;
49834;SDS011;35729;52.090;13.162;2023-06-14T10:52:36;4.65;;;3.58;;
49834;SDS011;35729;52.090;13.162;2023-06-14T10:55:07;4.70;;;3.22;;
49834;SDS011;35729;52.090;13.162;2023-06-14T10:57:40;4.30;;;2.85;;
49834;SDS011;35729;52.090;13.162;2023-06-14T11:00:11;4.93;;;2.78;;
49834;SDS011;35729;52.090;13.162;2023-06-14T11:06:01;4.88;;;3.22;;
49834;SDS011;35729;52.090;13.162;2023-06-14T11:11:44;6.75;;;5.25;;
49834;SDS011;35729;52.090;13.162;2023-06-14T11:14:16;4.50;;;2.80;;
49834;SDS011;35729;52.090;13.162;2023-06-14T11:16:47;6.20;;;3.13;;
49834;SDS011;35729;52.090;13.162;2023-06-14T11:19:16;3.67;;;2.90;;
49834;SDS011;35729;52.090;13.162;2023-06-14T11:21:46;6.25;;;2.88;;
49834;SDS011;35729;52.090;13.162;2023-06-14T11:24:16;8.60;;;5.43;;
49834;SDS011;35729;52.090;13.162;2023-06-14T11:26:46;6.18;;;3.35;;
49834;SDS011;35729;52.090;13.162;2023-06-14T11:29:19;5.22;;;3.20;;
49834;SDS011;35729;52.090;13.162;2023-06-14T11:31:48;5.25;;;3.03;;
49834;SDS011;35729;52.090;13.162;2023-06-14T11:34:17;8.93;;;3.05;;
49834;SDS011;35729;52.090;13.162;2023-06-14T11:36:45;7.78;;;2.90;;
49834;SDS011;35729;52.090;13.162;2023-06-14T11:39:14;8.15;;;3.47;;
49834;SDS011;35729;52.090;13.162;2023-06-14T11:41:43;4.70;;;2.72;;
49834;SDS011;35729;52.090;13.162;2023-06-14T11:44:12;5.13;;;2.67;;
49834;SDS011;35729;52.090;13.162;2023-06-14T11:46:44;4.28;;;2.78;;
49834;SDS011;35729;52.090;13.162;2023-06-14T11:49:12;3.40;;;2.70;;
49834;SDS011;35729;52.090;13.162;2023-06-14T11:51:42;4.55;;;2.60;;
49834;SDS011;35729;52.090;13.162;2023-06-14T11:54:11;5.07;;;2.60;;
49834;SDS011;35729;52.090;13.162;2023-06-14T11:56:40;3.28;;;2.63;;
49834;SDS011;35729;52.090;13.162;2023-06-14T11:59:09;3.58;;;2.80;;
49834;SDS011;35729;52.090;13.162;2023-06-14T12:01:38;12.63;;;3.10;;
49834;SDS011;35729;52.090;13.162;2023-06-14T12:04:09;3.60;;;2.40;;
49834;SDS011;35729;52.090;13.162;2023-06-14T12:06:37;7.57;;;2.97;;
49834;SDS011;35729;52.090;13.162;2023-06-14T12:09:06;3.78;;;2.55;;
49834;SDS011;35729;52.090;13.162;2023-06-14T12:11:38;7.20;;;2.47;;
49834;SDS011;35729;52.090;13.162;2023-06-14T12:14:07;4.80;;;2.45;;
49834;SDS011;35729;52.090;13.162;2023-06-14T12:16:37;3.78;;;2.25;;
49834;SDS011;35729;52.090;13.162;2023-06-14T12:19:12;3.42;;;2.40;;
49834;SDS011;35729;52.090;13.162;2023-06-14T12:21:42;2.35;;;2.15;;
49834;SDS011;35729;52.090;13.162;2023-06-14T12:24:14;8.23;;;2.58;;
49834;SDS011;35729;52.090;13.162;2023-06-14T12:26:42;5.55;;;2.40;;
49834;SDS011;35729;52.090;13.162;2023-06-14T12:29:12;3.40;;;2.50;;
49834;SDS011;35729;52.090;13.162;2023-06-14T12:31:40;4.32;;;2.25;;
49834;SDS011;35729;52.090;13.162;2023-06-14T12:34:11;5.22;;;2.30;;
49834;SDS011;35729;52.090;13.162;2023-06-14T12:36:40;7.68;;;2.58;;
49834;SDS011;35729;52.090;13.162;2023-06-14T12:39:11;6.75;;;3.17;;
49834;SDS011;35729;52.090;13.162;2023-06-14T12:41:39;4.47;;;2.58;;
49834;SDS011;35729;52.090;13.162;2023-06-14T12:44:09;4.35;;;2.60;;
49834;SDS011;35729;52.090;13.162;2023-06-14T12:46:38;4.88;;;2.65;;
49834;SDS011;35729;52.090;13.162;2023-06-14T12:49:08;5.45;;;2.50;;
49834;SDS011;35729;52.090;13.162;2023-06-14T12:51:40;5.55;;;3.00;;
49834;SDS011;35729;52.090;13.162;2023-06-14T12:54:08;3.33;;;2.45;;
49834;SDS011;35729;52.090;13.162;2023-06-14T12:56:37;6.13;;;3.00;;
49834;SDS011;35729;52.090;13.162;2023-06-14T12:59:06;3.53;;;2.40;;
49834;SDS011;35729;52.090;13.162;2023-06-14T13:04:05;14.68;;;2.92;;
49834;SDS011;35729;52.090;13.162;2023-06-14T13:06:34;5.50;;;2.40;;
49834;SDS011;35729;52.090;13.162;2023-06-14T13:09:05;6.50;;;2.78;;
49834;SDS011;35729;52.090;13.162;2023-06-14T13:11:33;5.13;;;2.70;;
49834;SDS011;35729;52.090;13.162;2023-06-14T13:14:02;3.80;;;2.40;;
49834;SDS011;35729;52.090;13.162;2023-06-14T13:16:30;3.50;;;2.35;;
49834;SDS011;35729;52.090;13.162;2023-06-14T13:19:00;5.65;;;2.38;;
49834;SDS011;35729;52.090;13.162;2023-06-14T13:21:29;5.60;;;2.97;;
49834;SDS011;35729;52.090;13.162;2023-06-14T13:23:57;6.05;;;2.55;;
49834;SDS011;35729;52.090;13.162;2023-06-14T13:26:28;6.60;;;2.97;;
49834;SDS011;35729;52.090;13.162;2023-06-14T13:28:57;11.77;;;2.70;;
49834;SDS011;35729;52.090;13.162;2023-06-14T13:31:25;6.18;;;2.45;;
49834;SDS011;35729;52.090;13.162;2023-06-14T13:33:54;6.65;;;2.88;;
49834;SDS011;35729;52.090;13.162;2023-06-14T13:36:22;8.38;;;2.28;;
49834;SDS011;35729;52.090;13.162;2023-06-14T13:38:51;4.30;;;2.83;;
49834;SDS011;35729;52.090;13.162;2023-06-14T13:41:20;3.35;;;2.28;;
49834;SDS011;35729;52.090;13.162;2023-06-14T13:43:51;2.45;;;2.22;;
49834;SDS011;35729;52.090;13.162;2023-06-14T13:46:19;5.35;;;2.20;;
49834;SDS011;35729;52.090;13.162;2023-06-14T13:48:48;3.55;;;2.17;;
49834;SDS011;35729;52.090;13.162;2023-06-14T13:51:17;6.25;;;2.22;;
49834;SDS011;35729;52.090;13.162;2023-06-14T13:53:46;3.80;;;2.28;;
49834;SDS011;35729;52.090;13.162;2023-06-14T13:56:14;5.32;;;2.65;;
49834;SDS011;35729;52.090;13.162;2023-06-14T13:58:44;6.15;;;2.47;;
49834;SDS011;35729;52.090;13.162;2023-06-14T14:01:15;2.95;;;2.30;;
49834;SDS011;35729;52.090;13.162;2023-06-14T14:03:44;6.97;;;2.90;;
49834;SDS011;35729;52.090;13.162;2023-06-14T14:06:13;5.18;;;3.20;;
49834;SDS011;35729;52.090;13.162;2023-06-14T14:08:41;5.70;;;2.72;;
49834;SDS011;35729;52.090;13.162;2023-06-14T14:11:10;3.38;;;2.42;;
49834;SDS011;35729;52.090;13.162;2023-06-14T14:13:40;5.43;;;2.35;;
49834;SDS011;35729;52.090;13.162;2023-06-14T14:16:08;3.13;;;2.40;;
49834;SDS011;35729;52.090;13.162;2023-06-14T14:18:46;3.80;;;2.42;;
49834;SDS011;35729;52.090;13.162;2023-06-14T14:21:14;4.72;;;2.15;;
49834;SDS011;35729;52.090;13.162;2023-06-14T14:23:43;6.32;;;2.05;;
49834;SDS011;35729;52.090;13.162;2023-06-14T14:26:11;3.33;;;2.60;;
49834;SDS011;35729;52.090;13.162;2023-06-14T14:28:40;7.10;;;2.45;;
49834;SDS011;35729;52.090;13.162;2023-06-14T14:31:09;4.13;;;2.33;;
49834;SDS011;35729;52.090;13.162;2023-06-14T14:33:37;3.00;;;2.20;;
49834;SDS011;35729;52.090;13.162;2023-06-14T14:36:08;5.88;;;2.83;;
49834;SDS011;35729;52.090;13.162;2023-06-14T14:38:38;4.80;;;2.47;;
49834;SDS011;35729;52.090;13.162;2023-06-14T14:41:07;4.57;;;2.70;;
49834;SDS011;35729;52.090;13.162;2023-06-14T14:43:35;4.75;;;2.22;;
49834;SDS011;35729;52.090;13.162;2023-06-14T14:46:04;4.03;;;2.58;;
49834;SDS011;35729;52.090;13.162;2023-06-14T14:48:32;7.57;;;2.42;;
49834;SDS011;35729;52.090;13.162;2023-06-14T14:51:01;9.15;;;3.13;;
49834;SDS011;35729;52.090;13.162;2023-06-14T14:53:32;3.13;;;2.25;;
49834;SDS011;35729;52.090;13.162;2023-06-14T14:56:01;6.40;;;2.40;;
49834;SDS011;35729;52.090;13.162;2023-06-14T14:58:29;4.60;;;2.17;;
49834;SDS011;35729;52.090;13.162;2023-06-14T15:00:58;5.55;;;2.38;;
49834;SDS011;35729;52.090;13.162;2023-06-14T15:03:26;3.92;;;2.47;;